createdAt,value
2018-04-11T00:00:21.862Z,0
2018-04-11T00:02:23.283Z,0
2018-04-11T00:04:24.763Z,0
2018-04-11T00:06:26.230Z,0
2018-04-11T00:08:27.694Z,0
2018-04-11T00:10:29.127Z,0
2018-04-11T00:12:30.564Z,0
2018-04-11T00:14:32.014Z,0
2018-04-11T00:16:33.608Z,0
2018-04-11T00:18:35.031Z,0
2018-04-11T00:20:36.456Z,0
2018-04-11T00:22:37.897Z,0
2018-04-11T00:24:39.329Z,0
2018-04-11T00:26:40.757Z,0
2018-04-11T00:28:42.187Z,0
2018-04-11T00:30:43.606Z,0
2018-04-11T00:32:45.097Z,0
2018-04-11T00:34:46.498Z,0
2018-04-11T00:36:47.917Z,0
2018-04-11T00:38:49.343Z,0
2018-04-11T00:40:50.763Z,0
2018-04-11T00:42:52.177Z,0
2018-04-11T00:44:53.601Z,0
2018-04-11T00:46:55.025Z,0
2018-04-11T00:48:56.457Z,0
2018-04-11T00:50:57.875Z,0
2018-04-11T00:52:59.296Z,0
2018-04-11T00:55:00.718Z,0
2018-04-11T00:57:02.140Z,0
2018-04-11T00:59:03.561Z,0
2018-04-11T01:01:04.984Z,0
2018-04-11T01:03:06.405Z,0
2018-04-11T01:05:07.830Z,0
2018-04-11T01:07:09.258Z,0
2018-04-11T01:09:10.676Z,0
2018-04-11T01:11:12.095Z,0
2018-04-11T01:13:13.515Z,0
2018-04-11T01:15:15.027Z,0
2018-04-11T01:17:16.519Z,0
2018-04-11T01:19:17.976Z,0
2018-04-11T01:21:19.465Z,0
2018-04-11T01:23:20.962Z,0
2018-04-11T01:25:22.438Z,0
2018-04-11T01:27:23.859Z,0
2018-04-11T01:29:25.296Z,0
2018-04-11T01:31:26.804Z,0
2018-04-11T01:33:28.255Z,0
2018-04-11T01:35:29.669Z,0
2018-04-11T01:37:31.164Z,0
2018-04-11T01:39:32.613Z,0
2018-04-11T01:41:34.030Z,0
2018-04-11T01:43:35.451Z,0
2018-04-11T01:45:36.911Z,0
2018-04-11T01:47:38.805Z,0
2018-04-11T01:49:42.131Z,0
2018-04-11T01:51:43.591Z,0
2018-04-11T01:53:45.114Z,0
2018-04-11T01:55:46.565Z,0
2018-04-11T01:57:47.996Z,0
2018-04-11T01:59:49.439Z,0
2018-04-11T02:01:50.955Z,0
2018-04-11T02:03:52.468Z,0
2018-04-11T02:05:53.976Z,0
2018-04-11T02:07:55.415Z,0
2018-04-11T02:09:56.847Z,0
2018-04-11T02:11:58.320Z,0
2018-04-11T02:13:59.833Z,0
2018-04-11T02:16:01.254Z,0
2018-04-11T02:18:02.675Z,0
2018-04-11T02:20:04.093Z,0
2018-04-11T02:22:05.517Z,0
2018-04-11T02:24:06.941Z,0
2018-04-11T02:26:08.357Z,0
2018-04-11T02:28:09.784Z,0
2018-04-11T02:30:11.563Z,0
2018-04-11T02:32:13.125Z,0
2018-04-11T02:34:14.613Z,0
2018-04-11T02:36:16.144Z,0
2018-04-11T02:38:17.726Z,0
2018-04-11T02:40:19.411Z,0
2018-04-11T02:42:21.652Z,0
2018-04-11T02:44:23.940Z,0
2018-04-11T02:46:25.619Z,0
2018-04-11T02:48:27.145Z,0
2018-04-11T02:50:28.572Z,0
2018-04-11T02:52:29.999Z,0
2018-04-11T02:54:31.489Z,0
2018-04-11T02:56:33.462Z,0
2018-04-11T02:58:35.824Z,0
2018-04-11T03:00:37.519Z,0
2018-04-11T03:02:38.950Z,0
2018-04-11T03:04:40.386Z,0
2018-04-11T03:06:41.892Z,0
2018-04-11T03:08:43.359Z,0
2018-04-11T03:10:44.832Z,0
2018-04-11T03:12:46.308Z,0
2018-04-11T03:14:47.757Z,0
2018-04-11T03:16:49.987Z,0
2018-04-11T03:18:51.512Z,0
2018-04-11T03:20:53.046Z,0
2018-04-11T03:22:54.499Z,0
2018-04-11T03:24:55.930Z,0
2018-04-11T03:26:57.509Z,0
2018-04-11T03:28:58.998Z,0
2018-04-11T03:31:00.498Z,0
2018-04-11T03:33:02.005Z,0
2018-04-11T03:35:03.480Z,0
2018-04-11T03:37:04.937Z,0
2018-04-11T03:39:06.425Z,0
2018-04-11T03:41:07.880Z,0
2018-04-11T03:43:09.337Z,0
2018-04-11T03:45:10.781Z,0
2018-04-11T03:47:12.335Z,0
2018-04-11T03:49:13.770Z,0
2018-04-11T03:51:15.211Z,0
2018-04-11T03:53:16.669Z,0
2018-04-11T03:55:18.126Z,0
2018-04-11T03:57:19.559Z,0
2018-04-11T03:59:21.064Z,0
2018-04-11T04:01:22.533Z,0
2018-04-11T04:03:24.045Z,0
2018-04-11T04:05:25.499Z,0
2018-04-11T04:07:26.988Z,0
2018-04-11T04:09:28.442Z,0
2018-04-11T04:11:29.867Z,0
2018-04-11T04:13:31.311Z,0
2018-04-11T04:15:32.792Z,0
2018-04-11T04:17:34.267Z,0
2018-04-11T04:19:35.744Z,0
2018-04-11T04:21:37.193Z,0
2018-04-11T04:23:38.646Z,4
2018-04-11T04:25:40.097Z,0
2018-04-11T04:27:41.530Z,8
2018-04-11T04:29:42.957Z,8
2018-04-11T04:31:44.377Z,12
2018-04-11T04:33:45.873Z,12
2018-04-11T04:35:47.295Z,16
2018-04-11T04:38:29.222Z,20
2018-04-11T04:40:30.655Z,24
2018-04-11T04:42:32.203Z,28
2018-04-11T04:44:33.787Z,36
2018-04-11T04:46:35.216Z,40
2018-04-11T04:48:36.664Z,48
2018-04-11T04:50:38.160Z,56
2018-04-11T04:52:39.685Z,64
2018-04-11T04:54:41.156Z,76
2018-04-11T04:56:42.582Z,84
2018-04-11T04:58:44.001Z,96
2018-04-11T05:00:45.417Z,104
2018-04-11T05:02:46.840Z,108
2018-04-11T05:04:48.264Z,124
2018-04-11T05:06:49.686Z,132
2018-04-11T05:08:51.113Z,152
2018-04-11T05:10:52.532Z,168
2018-04-11T05:12:53.945Z,192
2018-04-11T05:14:55.368Z,232
2018-04-11T05:16:56.809Z,256
2018-04-11T05:18:58.229Z,272
2018-04-11T05:20:59.651Z,296
2018-04-11T05:23:01.069Z,328
2018-04-11T05:25:02.487Z,356
2018-04-11T05:27:03.906Z,384
2018-04-11T05:29:05.326Z,428
2018-04-11T05:31:06.796Z,456
2018-04-11T05:33:08.209Z,492
2018-04-11T05:35:09.638Z,556
2018-04-11T05:37:11.059Z,608
2018-04-11T05:39:12.483Z,656
2018-04-11T05:41:13.908Z,696
2018-04-11T05:43:15.326Z,736
2018-04-11T05:45:16.763Z,768
2018-04-11T05:47:18.187Z,780
2018-04-11T05:49:19.604Z,808
2018-04-11T05:51:21.030Z,852
2018-04-11T05:53:22.486Z,920
2018-04-11T05:55:23.872Z,1008
2018-04-11T05:57:25.294Z,1132
2018-04-11T05:59:26.726Z,1228
2018-04-11T06:01:28.181Z,1280
2018-04-11T06:03:29.592Z,1312
2018-04-11T06:05:31.013Z,1448
2018-04-11T06:07:32.433Z,1540
2018-04-11T06:09:33.860Z,1608
2018-04-11T06:11:35.293Z,1556
2018-04-11T06:13:36.712Z,1576
2018-04-11T06:15:38.133Z,1720
2018-04-11T06:17:39.583Z,1760
2018-04-11T06:19:41.007Z,2004
2018-04-11T06:21:42.432Z,2564
2018-04-11T06:23:43.852Z,2604
2018-04-11T06:25:45.280Z,2716
2018-04-11T06:27:46.702Z,2804
2018-04-11T06:29:48.132Z,4120
2018-04-11T06:31:49.573Z,5928
2018-04-11T06:33:50.997Z,6216
2018-04-11T06:35:52.420Z,7688
2018-04-11T06:37:53.843Z,8264
2018-04-11T06:39:55.343Z,7640
2018-04-11T06:41:56.770Z,7288
2018-04-11T06:43:58.197Z,10880
2018-04-11T06:45:59.621Z,9472
2018-04-11T06:48:01.046Z,9220
2018-04-11T06:50:02.471Z,8348
2018-04-11T06:52:03.892Z,8636
2018-04-11T06:54:05.324Z,10760
2018-04-11T06:56:06.751Z,13856
2018-04-11T06:58:08.269Z,13440
2018-04-11T07:00:09.700Z,12028
2018-04-11T07:02:11.126Z,14304
2018-04-11T07:04:12.557Z,13536
2018-04-11T07:06:13.987Z,19872
2018-04-11T07:08:15.419Z,12172
2018-04-11T07:10:16.865Z,16064
2018-04-11T07:12:18.296Z,12456
2018-04-11T07:14:19.729Z,16576
2018-04-11T07:16:21.158Z,9632
2018-04-11T07:18:22.590Z,12876
2018-04-11T07:20:24.021Z,16224
2018-04-11T07:22:25.457Z,15744
2018-04-11T07:24:26.885Z,24256
2018-04-11T07:26:28.317Z,13616
2018-04-11T07:28:29.748Z,7896
2018-04-11T07:30:31.190Z,14336
2018-04-11T07:32:32.618Z,25344
2018-04-11T07:34:34.057Z,30272
2018-04-11T07:36:35.489Z,14072
2018-04-11T07:38:36.920Z,9352
2018-04-11T07:40:38.351Z,11452
2018-04-11T07:42:39.792Z,17312
2018-04-11T07:44:41.226Z,19968
2018-04-11T07:46:42.657Z,15328
2018-04-11T07:48:44.108Z,16608
2018-04-11T07:50:45.528Z,11232
2018-04-11T07:52:46.958Z,5800
2018-04-11T07:54:48.414Z,5260
2018-04-11T07:56:50.084Z,5172
2018-04-11T07:58:51.516Z,5156
2018-04-11T08:00:52.950Z,5144
2018-04-11T08:02:54.383Z,5168
2018-04-11T08:04:55.812Z,5144
2018-04-11T08:06:57.263Z,5096
2018-04-11T08:08:58.673Z,5092
2018-04-11T08:11:00.105Z,5076
2018-04-11T08:13:01.540Z,5068
2018-04-11T08:15:02.974Z,5080
2018-04-11T08:17:04.403Z,5112
2018-04-11T08:19:05.829Z,5152
2018-04-11T08:21:07.266Z,5164
2018-04-11T08:23:08.696Z,5168
2018-04-11T08:25:10.126Z,5208
2018-04-11T08:27:11.566Z,5224
2018-04-11T08:29:12.986Z,5264
2018-04-11T08:31:14.444Z,5308
2018-04-11T08:33:15.926Z,5404
2018-04-11T08:35:17.443Z,5552
2018-04-11T08:37:18.878Z,5424
2018-04-11T08:39:20.311Z,5520
2018-04-11T08:41:21.736Z,5608
2018-04-11T08:43:23.172Z,5608
2018-04-11T08:45:24.599Z,5516
2018-04-11T08:47:26.081Z,5492
2018-04-11T08:49:27.463Z,5528
2018-04-11T08:51:28.896Z,5544
2018-04-11T08:53:30.323Z,5500
2018-04-11T08:55:31.754Z,5284
2018-04-11T08:57:33.195Z,5236
2018-04-11T08:59:34.627Z,5136
2018-04-11T09:01:36.066Z,5172
2018-04-11T09:03:37.498Z,5256
2018-04-11T09:05:38.932Z,5340
2018-04-11T09:07:40.373Z,5268
2018-04-11T09:09:41.795Z,5132
2018-04-11T09:11:43.229Z,4636
2018-04-11T09:13:44.658Z,5216
2018-04-11T09:15:46.093Z,5220
2018-04-11T09:17:47.532Z,5264
2018-04-11T09:19:48.966Z,5156
2018-04-11T09:21:50.400Z,5080
2018-04-11T09:23:51.831Z,5028
2018-04-11T09:25:53.265Z,5024
2018-04-11T09:27:54.700Z,5020
2018-04-11T09:29:56.138Z,4984
2018-04-11T09:31:57.632Z,4968
2018-04-11T09:33:59.007Z,4996
2018-04-11T09:36:00.439Z,4972
2018-04-11T09:38:01.876Z,5016
2018-04-11T09:40:03.303Z,5080
2018-04-11T09:42:04.731Z,5192
2018-04-11T09:44:06.113Z,5380
2018-04-11T09:46:07.547Z,5584
2018-04-11T09:48:08.994Z,5448
2018-04-11T09:50:10.426Z,5540
2018-04-11T09:52:11.951Z,5660
2018-04-11T09:54:13.456Z,5692
2018-04-11T09:56:15.193Z,5636
2018-04-11T09:58:16.669Z,5484
2018-04-11T10:00:18.157Z,5492
2018-04-11T10:02:19.669Z,4848
2018-04-11T10:04:21.168Z,3696
2018-04-11T10:06:22.613Z,5448
2018-04-11T10:08:24.069Z,3444
2018-04-11T10:10:25.514Z,5080
2018-04-11T10:12:26.948Z,4952
2018-04-11T10:14:28.393Z,5972
2018-04-11T10:16:29.833Z,5912
2018-04-11T10:18:31.268Z,5820
2018-04-11T10:20:32.705Z,5828
2018-04-11T10:22:34.140Z,5864
2018-04-11T10:24:35.574Z,4000
2018-04-11T10:26:37.007Z,3484
2018-04-11T10:28:38.446Z,4124
2018-04-11T10:30:39.876Z,4328
2018-04-11T10:32:41.312Z,4720
2018-04-11T10:34:42.748Z,6140
2018-04-11T10:36:44.182Z,6064
2018-04-11T10:39:26.726Z,4972
2018-04-11T10:41:28.134Z,3824
2018-04-11T10:43:29.568Z,3624
2018-04-11T10:45:31.000Z,3516
2018-04-11T10:47:32.432Z,3088
2018-04-11T10:49:33.864Z,4524
2018-04-11T10:51:35.300Z,3360
2018-04-11T10:53:36.732Z,3456
2018-04-11T10:55:38.164Z,3504
2018-04-11T10:57:39.596Z,5136
2018-04-11T10:59:41.028Z,4492
2018-04-11T11:01:42.459Z,3856
2018-04-11T11:03:43.896Z,5584
2018-04-11T11:05:45.334Z,5004
2018-04-11T11:07:47.014Z,2652
2018-04-11T11:09:49.052Z,2400
2018-04-11T11:11:51.124Z,2232
2018-04-11T11:13:52.685Z,3108
2018-04-11T11:15:54.138Z,2700
2018-04-11T11:17:55.571Z,3372
2018-04-11T11:19:57.504Z,4644
2018-04-11T11:21:58.952Z,4492
2018-04-11T11:24:00.398Z,4656
2018-04-11T11:26:01.836Z,4628
2018-04-11T11:28:03.268Z,3976
2018-04-11T11:30:04.697Z,4248
2018-04-11T11:32:06.128Z,4720
2018-04-11T11:34:07.569Z,4844
2018-04-11T11:36:09.001Z,4096
2018-04-11T11:38:10.431Z,4112
2018-04-11T11:40:12.437Z,2688
2018-04-11T11:42:14.034Z,2552
2018-04-11T11:44:15.533Z,2812
2018-04-11T11:46:16.963Z,2212
2018-04-11T11:48:18.516Z,4300
2018-04-11T11:50:20.167Z,4196
2018-04-11T11:52:21.666Z,2992
2018-04-11T11:54:23.153Z,2692
2018-04-11T11:56:24.592Z,3756
2018-04-11T11:58:26.032Z,3820
2018-04-11T12:00:27.468Z,3636
2018-04-11T12:02:28.904Z,3620
2018-04-11T12:04:30.343Z,3320
2018-04-11T12:06:31.908Z,3448
2018-04-11T12:08:33.317Z,3968
2018-04-11T12:10:34.757Z,4116
2018-04-11T12:12:36.189Z,4120
2018-04-11T12:14:37.624Z,4132
2018-04-11T12:16:39.065Z,3540
2018-04-11T12:18:40.492Z,2516
2018-04-11T12:20:41.943Z,4032
2018-04-11T12:22:43.368Z,3884
2018-04-11T12:24:44.805Z,3304
2018-04-11T12:26:46.244Z,1960
2018-04-11T12:28:47.678Z,1776
2018-04-11T12:30:49.115Z,1732
2018-04-11T12:32:50.557Z,2800
2018-04-11T12:34:52.040Z,1456
2018-04-11T12:36:53.515Z,1104
2018-04-11T12:38:55.028Z,956
2018-04-11T12:40:56.459Z,876
2018-04-11T12:42:57.893Z,824
2018-04-11T12:44:59.404Z,820
2018-04-11T12:47:01.603Z,856
2018-04-11T12:49:03.002Z,908
2018-04-11T12:51:04.433Z,996
2018-04-11T12:53:05.968Z,1112
2018-04-11T12:55:07.400Z,1248
2018-04-11T12:57:08.826Z,1356
2018-04-11T12:59:10.261Z,1436
2018-04-11T13:01:11.947Z,1508
2018-04-11T13:03:13.583Z,1600
2018-04-11T13:05:15.090Z,1704
2018-04-11T13:07:16.619Z,1832
2018-04-11T13:09:18.089Z,3232
2018-04-11T13:11:19.563Z,1708
2018-04-11T13:13:21.004Z,1560
2018-04-11T13:15:22.442Z,1500
2018-04-11T13:17:23.875Z,1488
2018-04-11T13:19:25.337Z,1544
2018-04-11T13:21:26.758Z,1712
2018-04-11T13:23:28.234Z,1864
2018-04-11T13:25:29.654Z,2276
2018-04-11T13:27:31.276Z,2032
2018-04-11T13:29:33.049Z,2064
2018-04-11T13:31:34.530Z,2040
2018-04-11T13:33:35.995Z,2120
2018-04-11T13:35:37.430Z,2164
2018-04-11T13:37:39.032Z,2120
2018-04-11T13:39:40.722Z,2080
2018-04-11T13:41:42.517Z,2028
2018-04-11T13:43:43.994Z,1996
2018-04-11T13:45:45.474Z,1948
2018-04-11T13:47:47.080Z,1892
2018-04-11T13:49:48.770Z,1880
2018-04-11T13:51:50.279Z,1812
2018-04-11T13:53:51.746Z,1792
2018-04-11T13:55:53.209Z,1792
2018-04-11T13:57:54.724Z,1768
2018-04-11T13:59:56.222Z,1728
2018-04-11T14:01:57.955Z,1636
2018-04-11T14:03:59.440Z,1580
2018-04-11T14:06:00.923Z,1532
2018-04-11T14:08:02.693Z,1516
2018-04-11T14:10:04.205Z,1540
2018-04-11T14:12:05.637Z,1516
2018-04-11T14:14:07.065Z,1456
2018-04-11T14:16:08.495Z,1416
2018-04-11T14:18:10.354Z,1384
2018-04-11T14:20:12.243Z,1352
2018-04-11T14:22:13.704Z,1324
2018-04-11T14:24:15.136Z,1308
2018-04-11T14:26:16.568Z,1296
2018-04-11T14:28:18.313Z,1276
2018-04-11T14:30:19.944Z,1244
2018-04-11T14:32:21.645Z,1300
2018-04-11T14:34:23.401Z,1328
2018-04-11T14:36:25.163Z,1324
2018-04-11T14:38:26.919Z,1324
2018-04-11T14:40:28.436Z,1408
2018-04-11T14:42:29.898Z,1564
2018-04-11T14:44:31.620Z,1412
2018-04-11T14:46:33.278Z,1336
2018-04-11T14:48:35.312Z,1288
2018-04-11T14:50:37.433Z,1300
2018-04-11T14:52:38.978Z,1284
2018-04-11T14:54:40.439Z,1224
2018-04-11T14:56:41.933Z,1168
2018-04-11T14:58:43.402Z,1168
2018-04-11T15:00:44.842Z,1148
2018-04-11T15:02:47.172Z,1116
2018-04-11T15:04:48.551Z,1084
2018-04-11T15:06:50.032Z,1156
2018-04-11T15:08:51.419Z,1200
2018-04-11T15:10:53.777Z,1208
2018-04-11T15:12:55.235Z,1200
2018-04-11T15:14:56.725Z,1120
2018-04-11T15:16:58.980Z,1088
2018-04-11T15:19:01.183Z,1100
2018-04-11T15:21:02.669Z,1140
2018-04-11T15:23:04.142Z,1008
2018-04-11T15:25:05.670Z,948
2018-04-11T15:27:07.100Z,912
2018-04-11T15:29:08.598Z,880
2018-04-11T15:31:10.031Z,872
2018-04-11T15:33:13.509Z,916
2018-04-11T15:35:14.960Z,832
2018-04-11T15:37:16.451Z,820
2018-04-11T15:39:17.985Z,884
2018-04-11T15:41:19.437Z,1008
2018-04-11T15:43:20.882Z,1120
2018-04-11T15:45:23.038Z,1264
2018-04-11T15:47:25.084Z,1144
2018-04-11T15:49:27.324Z,1004
2018-04-11T15:51:28.832Z,1044
2018-04-11T15:53:30.271Z,988
2018-04-11T15:55:31.701Z,932
2018-04-11T15:57:33.131Z,856
2018-04-11T15:59:34.563Z,660
2018-04-11T16:01:35.999Z,584
2018-04-11T16:03:37.417Z,476
2018-04-11T16:05:39.561Z,408
2018-04-11T16:07:41.021Z,416
2018-04-11T16:09:42.451Z,444
2018-04-11T16:11:43.884Z,512
2018-04-11T16:13:48.801Z,512
2018-04-11T16:15:51.032Z,552
2018-04-11T16:17:53.225Z,572
2018-04-11T16:19:54.886Z,604
2018-04-11T16:21:56.830Z,652
2018-04-11T16:23:58.446Z,680
2018-04-11T16:25:59.911Z,696
2018-04-11T16:28:01.347Z,680
2018-04-11T16:30:03.258Z,704
2018-04-11T16:32:05.445Z,720
2018-04-11T16:34:07.744Z,716
2018-04-11T16:36:09.314Z,552
2018-04-11T16:38:51.732Z,448
2018-04-11T16:40:53.165Z,432
2018-04-11T16:42:54.638Z,404
2018-04-11T16:44:56.072Z,308
2018-04-11T16:46:58.391Z,228
2018-04-11T16:48:59.796Z,232
2018-04-11T16:51:01.952Z,244
2018-04-11T16:53:03.561Z,260
2018-04-11T16:55:05.010Z,276
2018-04-11T16:57:06.458Z,312
2018-04-11T16:59:07.897Z,340
2018-04-11T17:01:09.386Z,344
2018-04-11T17:03:11.710Z,376
2018-04-11T17:05:13.200Z,356
2018-04-11T17:07:14.691Z,368
2018-04-11T17:09:16.133Z,368
2018-04-11T17:11:18.260Z,380
2018-04-11T17:13:19.689Z,368
2018-04-11T17:15:21.806Z,356
2018-04-11T17:17:23.860Z,364
2018-04-11T17:19:25.302Z,332
2018-04-11T17:21:26.808Z,304
2018-04-11T17:23:28.245Z,296
2018-04-11T17:25:30.403Z,284
2018-04-11T17:27:31.782Z,272
2018-04-11T17:29:33.223Z,264
2018-04-11T17:31:34.650Z,256
2018-04-11T17:33:36.089Z,244
2018-04-11T17:35:37.503Z,228
2018-04-11T17:37:38.938Z,220
2018-04-11T17:39:40.358Z,212
2018-04-11T17:41:42.400Z,204
2018-04-11T17:43:43.820Z,188
2018-04-11T17:45:45.246Z,180
2018-04-11T17:47:46.672Z,172
2018-04-11T17:49:48.648Z,160
2018-04-11T17:51:50.568Z,148
2018-04-11T17:53:52.616Z,136
2018-04-11T17:55:54.065Z,120
2018-04-11T17:57:56.149Z,108
2018-04-11T17:59:57.671Z,96
2018-04-11T18:01:59.116Z,80
2018-04-11T18:04:01.416Z,68
2018-04-11T18:06:03.375Z,60
2018-04-11T18:08:04.918Z,52
2018-04-11T18:10:06.388Z,52
2018-04-11T18:12:07.848Z,44
2018-04-11T18:14:09.325Z,40
2018-04-11T18:16:11.343Z,36
2018-04-11T18:18:12.851Z,32
2018-04-11T18:20:14.902Z,28
2018-04-11T18:22:16.408Z,24
2018-04-11T18:24:17.883Z,16
2018-04-11T18:26:19.343Z,16
2018-04-11T18:28:20.776Z,12
2018-04-11T18:30:22.244Z,8
2018-04-11T18:32:23.716Z,8
2018-04-11T18:34:25.933Z,8
2018-04-11T18:36:27.603Z,4
2018-04-11T18:38:29.073Z,0
2018-04-11T18:40:31.168Z,0
2018-04-11T18:42:32.770Z,0
2018-04-11T18:44:34.383Z,4
2018-04-11T18:46:36.282Z,0
2018-04-11T18:48:37.896Z,0
2018-04-11T18:50:39.583Z,0
2018-04-11T18:52:41.321Z,0
2018-04-11T18:54:43.137Z,0
2018-04-11T18:56:44.887Z,0
2018-04-11T18:58:46.755Z,0
2018-04-11T19:00:48.550Z,0
2018-04-11T19:02:50.056Z,0
2018-04-11T19:04:51.525Z,0
2018-04-11T19:06:53.331Z,0
2018-04-11T19:08:55.093Z,0
2018-04-11T19:10:56.799Z,0
2018-04-11T19:12:58.597Z,0
2018-04-11T19:15:00.085Z,0
2018-04-11T19:17:01.624Z,0
2018-04-11T19:19:03.259Z,0
2018-04-11T19:21:04.797Z,0
2018-04-11T19:23:06.385Z,0
2018-04-11T19:25:07.855Z,0
2018-04-11T19:27:09.516Z,0
2018-04-11T19:29:11.067Z,0
2018-04-11T19:31:12.736Z,0
2018-04-11T19:33:14.791Z,0
2018-04-11T19:35:16.959Z,0
2018-04-11T19:37:18.626Z,0
2018-04-11T19:39:20.378Z,0
2018-04-11T19:41:22.046Z,0
2018-04-11T19:43:23.797Z,0
2018-04-11T19:45:25.525Z,0
2018-04-11T19:47:27.270Z,0
2018-04-11T19:49:29.440Z,0
2018-04-11T19:51:31.019Z,0
2018-04-11T19:53:32.525Z,0
2018-04-11T19:55:34.306Z,0
2018-04-11T19:57:35.884Z,0
2018-04-11T19:59:37.790Z,0
2018-04-11T20:01:39.247Z,0
2018-04-11T20:03:40.718Z,0
2018-04-11T20:05:42.370Z,0
2018-04-11T20:07:43.863Z,0
2018-04-11T20:09:45.455Z,0
2018-04-11T20:11:48.882Z,0
2018-04-11T20:13:50.713Z,0
2018-04-11T20:15:52.470Z,0
2018-04-11T20:17:54.420Z,0
2018-04-11T20:19:56.154Z,0
2018-04-11T20:21:58.431Z,0
2018-04-11T20:24:00.675Z,0
2018-04-11T20:26:02.286Z,0
2018-04-11T20:28:03.974Z,0
2018-04-11T20:30:05.452Z,0
2018-04-11T20:32:07.137Z,0
2018-04-11T20:34:08.861Z,0
2018-04-11T20:36:10.951Z,0
2018-04-11T20:38:12.618Z,0
2018-04-11T20:40:14.397Z,0
2018-04-11T20:42:16.061Z,0
2018-04-11T20:44:18.579Z,0
2018-04-11T20:46:20.192Z,0
2018-04-11T20:48:21.661Z,0
2018-04-11T20:50:23.590Z,0
2018-04-11T20:52:25.820Z,0
2018-04-11T20:54:27.394Z,0
2018-04-11T20:56:29.034Z,0
2018-04-11T20:58:31.142Z,0
2018-04-11T21:00:32.621Z,0
2018-04-11T21:02:34.095Z,0
2018-04-11T21:04:35.582Z,0
2018-04-11T21:06:37.144Z,0
2018-04-11T21:08:38.626Z,0
2018-04-11T21:10:40.108Z,0
2018-04-11T21:12:41.581Z,0
2018-04-11T21:14:43.146Z,0
2018-04-11T21:16:45.269Z,0
2018-04-11T21:18:46.898Z,0
2018-04-11T21:20:48.627Z,0
2018-04-11T21:22:50.241Z,0
2018-04-11T21:24:51.709Z,0
2018-04-11T21:26:53.239Z,0
2018-04-11T21:28:54.727Z,0
2018-04-11T21:30:56.189Z,0
2018-04-11T21:32:57.668Z,0
2018-04-11T21:34:59.556Z,0
2018-04-11T21:37:01.684Z,0
2018-04-11T21:39:03.120Z,0
2018-04-11T21:41:04.604Z,0
2018-04-11T21:43:06.350Z,0
2018-04-11T21:45:07.984Z,0
2018-04-11T21:47:09.573Z,0
2018-04-11T21:49:11.074Z,0
2018-04-11T21:51:12.594Z,0
2018-04-11T21:53:14.152Z,0
2018-04-11T21:55:15.766Z,0
2018-04-11T21:57:17.518Z,0
2018-04-11T21:59:19.800Z,0
2018-04-11T22:01:22.167Z,0
2018-04-11T22:03:23.825Z,0
2018-04-11T22:05:26.051Z,0
2018-04-11T22:07:28.271Z,0
2018-04-11T22:09:29.947Z,0
2018-04-11T22:11:31.401Z,0
2018-04-11T22:13:33.448Z,0
2018-04-11T22:15:35.047Z,0
2018-04-11T22:17:36.667Z,0
2018-04-11T22:19:38.894Z,0
2018-04-11T22:21:40.564Z,0
2018-04-11T22:23:42.041Z,0
2018-04-11T22:25:43.631Z,0
2018-04-11T22:27:45.087Z,0
2018-04-11T22:29:46.511Z,0
2018-04-11T22:31:47.979Z,0
2018-04-11T22:33:49.428Z,0
2018-04-11T22:35:50.877Z,0
2018-04-11T22:37:52.649Z,0
2018-04-11T22:39:54.225Z,0
2018-04-11T22:41:55.874Z,0
2018-04-11T22:43:57.570Z,0
2018-04-11T22:45:59.034Z,0
2018-04-11T22:48:00.545Z,0
2018-04-11T22:50:02.009Z,0
2018-04-11T22:52:04.444Z,0
2018-04-11T22:54:06.674Z,0
2018-04-11T22:56:09.064Z,0
2018-04-11T22:58:10.615Z,0
2018-04-11T23:00:12.190Z,0
2018-04-11T23:02:13.895Z,0
2018-04-11T23:04:15.405Z,0
2018-04-11T23:06:16.873Z,0
2018-04-11T23:08:18.543Z,0
2018-04-11T23:10:20.180Z,0
2018-04-11T23:12:21.641Z,0
2018-04-11T23:14:23.152Z,0
2018-04-11T23:16:24.629Z,0
2018-04-11T23:18:26.036Z,0
2018-04-11T23:20:27.957Z,0
2018-04-11T23:22:29.454Z,0
2018-04-11T23:24:31.080Z,0
2018-04-11T23:26:32.746Z,0
2018-04-11T23:28:35.048Z,0
2018-04-11T23:30:36.488Z,0
2018-04-11T23:32:37.924Z,0
2018-04-11T23:34:39.602Z,0
2018-04-11T23:36:41.211Z,0
2018-04-11T23:38:42.889Z,0
2018-04-11T23:40:45.080Z,0
2018-04-11T23:42:46.522Z,0
2018-04-11T23:44:48.514Z,0
2018-04-11T23:46:50.197Z,0
2018-04-11T23:48:51.677Z,0
2018-04-11T23:50:53.274Z,0
2018-04-11T23:52:54.773Z,0
2018-04-11T23:54:56.242Z,0
2018-04-11T23:56:58.435Z,0
2018-04-11T23:58:59.949Z,0
